sensor_id;sensor_type;location;lat;lon;timestamp;pressure;altitude;pressure_sealevel;temperature;humidity
3598;BME280;1813;52.016;8.714;2023-08-06T00:01:39;-16261.94;;;-139.71;88.37
3598;BME280;1813;52.016;8.714;2023-08-06T00:04:13;-16261.94;;;-139.71;88.43
3598;BME280;1813;52.016;8.714;2023-08-06T00:06:47;-16261.94;;;-139.71;88.52
3598;BME280;1813;52.016;8.714;2023-08-06T00:09:21;-16261.94;;;-139.71;88.65
3598;BME280;1813;52.016;8.714;2023-08-06T00:11:56;-16261.94;;;-139.71;88.57
3598;BME280;1813;52.016;8.714;2023-08-06T00:14:32;-16261.94;;;-139.71;88.59
3598;BME280;1813;52.016;8.714;2023-08-06T00:17:08;-16261.94;;;-139.71;88.60
3598;BME280;1813;52.016;8.714;2023-08-06T00:19:42;-16261.94;;;-139.71;88.85
3598;BME280;1813;52.016;8.714;2023-08-06T00:22:16;-16261.94;;;-139.71;88.80
3598;BME280;1813;52.016;8.714;2023-08-06T00:24:51;-16261.94;;;-139.71;88.93
3598;BME280;1813;52.016;8.714;2023-08-06T00:27:28;-16261.94;;;-139.71;89.00
3598;BME280;1813;52.016;8.714;2023-08-06T00:30:07;-16261.94;;;-139.71;88.66
3598;BME280;1813;52.016;8.714;2023-08-06T00:32:41;-16261.94;;;-139.71;88.53
3598;BME280;1813;52.016;8.714;2023-08-06T00:35:16;-16261.94;;;-139.71;88.60
3598;BME280;1813;52.016;8.714;2023-08-06T00:37:51;-16261.94;;;-139.71;88.86
3598;BME280;1813;52.016;8.714;2023-08-06T00:40:25;-16261.94;;;-139.71;88.85
3598;BME280;1813;52.016;8.714;2023-08-06T00:43:00;-16261.94;;;-139.71;89.13
3598;BME280;1813;52.016;8.714;2023-08-06T00:45:37;-16261.94;;;-139.71;88.98
3598;BME280;1813;52.016;8.714;2023-08-06T00:48:11;-16261.94;;;-139.71;89.13
3598;BME280;1813;52.016;8.714;2023-08-06T00:50:45;-16261.94;;;-139.71;88.81
3598;BME280;1813;52.016;8.714;2023-08-06T00:53:19;-16261.94;;;-139.71;89.03
3598;BME280;1813;52.016;8.714;2023-08-06T00:55:53;-16261.94;;;-139.71;89.23
3598;BME280;1813;52.016;8.714;2023-08-06T00:58:27;-16261.94;;;-139.71;89.33
3598;BME280;1813;52.016;8.714;2023-08-06T01:01:04;-16261.94;;;-139.71;89.06
3598;BME280;1813;52.016;8.714;2023-08-06T01:03:38;-16261.94;;;-139.71;89.15
3598;BME280;1813;52.016;8.714;2023-08-06T01:06:12;-16261.94;;;-139.71;89.42
3598;BME280;1813;52.016;8.714;2023-08-06T01:08:51;-16261.94;;;-139.71;89.33
3598;BME280;1813;52.016;8.714;2023-08-06T01:11:37;-16261.94;;;-139.71;89.28
3598;BME280;1813;52.016;8.714;2023-08-06T01:14:18;-16261.94;;;-139.71;89.53
3598;BME280;1813;52.016;8.714;2023-08-06T01:17:01;-16261.94;;;-139.71;89.33
3598;BME280;1813;52.016;8.714;2023-08-06T01:19:35;-16261.94;;;-139.71;89.46
3598;BME280;1813;52.016;8.714;2023-08-06T01:22:11;-16261.94;;;-139.71;89.51
3598;BME280;1813;52.016;8.714;2023-08-06T01:24:48;-16261.94;;;-139.71;89.41
3598;BME280;1813;52.016;8.714;2023-08-06T01:27:27;-16261.94;;;-139.71;89.35
3598;BME280;1813;52.016;8.714;2023-08-06T01:30:05;-16261.94;;;-139.71;89.56
3598;BME280;1813;52.016;8.714;2023-08-06T01:32:43;-16261.94;;;-139.71;89.45
3598;BME280;1813;52.016;8.714;2023-08-06T01:35:19;-16261.94;;;-139.71;89.40
3598;BME280;1813;52.016;8.714;2023-08-06T01:37:56;-16261.94;;;-139.71;89.62
3598;BME280;1813;52.016;8.714;2023-08-06T01:40:29;-16261.94;;;-139.71;89.66
3598;BME280;1813;52.016;8.714;2023-08-06T01:43:05;-16261.94;;;-139.71;89.37
3598;BME280;1813;52.016;8.714;2023-08-06T01:45:38;-16261.94;;;-139.71;89.26
3598;BME280;1813;52.016;8.714;2023-08-06T01:48:12;-16261.94;;;-139.71;89.25
3598;BME280;1813;52.016;8.714;2023-08-06T01:50:46;-16261.94;;;-139.71;88.93
3598;BME280;1813;52.016;8.714;2023-08-06T01:53:22;-16261.94;;;-139.71;89.01
3598;BME280;1813;52.016;8.714;2023-08-06T01:55:57;-16261.94;;;-139.71;88.88
3598;BME280;1813;52.016;8.714;2023-08-06T01:58:30;-16261.94;;;-139.71;89.01
3598;BME280;1813;52.016;8.714;2023-08-06T02:01:04;-16261.94;;;-139.71;88.86
3598;BME280;1813;52.016;8.714;2023-08-06T02:03:38;-16261.94;;;-139.71;88.76
3598;BME280;1813;52.016;8.714;2023-08-06T02:06:12;-16261.94;;;-139.71;88.50
3598;BME280;1813;52.016;8.714;2023-08-06T02:08:48;-16261.94;;;-139.71;88.36
3598;BME280;1813;52.016;8.714;2023-08-06T02:11:22;-16261.94;;;-139.71;88.23
3598;BME280;1813;52.016;8.714;2023-08-06T02:13:56;-16261.94;;;-139.71;87.96
3598;BME280;1813;52.016;8.714;2023-08-06T02:16:30;-16261.94;;;-139.71;87.91
3598;BME280;1813;52.016;8.714;2023-08-06T02:19:04;-16261.94;;;-139.71;88.16
3598;BME280;1813;52.016;8.714;2023-08-06T02:21:38;-16261.94;;;-139.71;88.00
3598;BME280;1813;52.016;8.714;2023-08-06T02:24:14;-16261.94;;;-139.71;87.28
3598;BME280;1813;52.016;8.714;2023-08-06T02:26:48;-16261.94;;;-139.71;86.95
3598;BME280;1813;52.016;8.714;2023-08-06T02:29:26;-16261.94;;;-139.71;86.95
3598;BME280;1813;52.016;8.714;2023-08-06T02:31:59;-16261.94;;;-139.71;86.66
3598;BME280;1813;52.016;8.714;2023-08-06T02:34:34;-16261.94;;;-139.71;86.36
3598;BME280;1813;52.016;8.714;2023-08-06T02:37:07;-16261.94;;;-139.71;86.61
3598;BME280;1813;52.016;8.714;2023-08-06T02:39:46;-16261.94;;;-139.71;86.60
3598;BME280;1813;52.016;8.714;2023-08-06T02:42:20;-16261.94;;;-139.71;86.63
3598;BME280;1813;52.016;8.714;2023-08-06T02:44:54;-16261.94;;;-139.71;86.62
3598;BME280;1813;52.016;8.714;2023-08-06T02:47:28;-16261.94;;;-139.71;86.52
3598;BME280;1813;52.016;8.714;2023-08-06T02:50:03;-16261.94;;;-139.71;86.50
3598;BME280;1813;52.016;8.714;2023-08-06T02:52:37;-16261.94;;;-139.71;86.19
3598;BME280;1813;52.016;8.714;2023-08-06T02:55:15;-16261.94;;;-139.71;86.04
3598;BME280;1813;52.016;8.714;2023-08-06T02:57:51;-16261.94;;;-139.71;86.07
3598;BME280;1813;52.016;8.714;2023-08-06T03:00:26;-16261.94;;;-139.71;86.17
3598;BME280;1813;52.016;8.714;2023-08-06T03:02:59;-16261.94;;;-139.71;86.35
3598;BME280;1813;52.016;8.714;2023-08-06T03:05:41;-16261.94;;;-139.71;86.11
3598;BME280;1813;52.016;8.714;2023-08-06T03:08:31;-16261.94;;;-139.71;85.66
3598;BME280;1813;52.016;8.714;2023-08-06T03:11:07;-16261.94;;;-139.71;85.57
3598;BME280;1813;52.016;8.714;2023-08-06T03:13:41;-16261.94;;;-139.71;85.84
3598;BME280;1813;52.016;8.714;2023-08-06T03:16:16;-16261.94;;;-139.71;85.71
3598;BME280;1813;52.016;8.714;2023-08-06T03:18:50;-16261.94;;;-139.71;85.91
3598;BME280;1813;52.016;8.714;2023-08-06T03:21:25;-16261.94;;;-139.71;86.02
3598;BME280;1813;52.016;8.714;2023-08-06T03:23:59;-16261.94;;;-139.71;85.75
3598;BME280;1813;52.016;8.714;2023-08-06T03:26:39;-16261.94;;;-139.71;85.66
3598;BME280;1813;52.016;8.714;2023-08-06T03:29:15;-16261.94;;;-139.71;85.69
3598;BME280;1813;52.016;8.714;2023-08-06T03:31:52;-16261.94;;;-139.71;85.81
3598;BME280;1813;52.016;8.714;2023-08-06T03:34:26;-16261.94;;;-139.71;85.90
3598;BME280;1813;52.016;8.714;2023-08-06T03:37:00;-16261.94;;;-139.71;86.01
3598;BME280;1813;52.016;8.714;2023-08-06T03:39:33;-16261.94;;;-139.71;85.94
3598;BME280;1813;52.016;8.714;2023-08-06T03:42:10;-16261.94;;;-139.71;86.19
3598;BME280;1813;52.016;8.714;2023-08-06T03:44:44;-16261.94;;;-139.71;86.34
3598;BME280;1813;52.016;8.714;2023-08-06T03:47:18;-16261.94;;;-139.71;86.28
3598;BME280;1813;52.016;8.714;2023-08-06T03:49:55;-16261.94;;;-139.71;85.36
3598;BME280;1813;52.016;8.714;2023-08-06T03:52:29;-16261.94;;;-139.71;85.13
3598;BME280;1813;52.016;8.714;2023-08-06T03:55:04;-16261.94;;;-139.71;85.37
3598;BME280;1813;52.016;8.714;2023-08-06T03:57:40;-16261.94;;;-139.71;85.36
3598;BME280;1813;52.016;8.714;2023-08-06T04:00:14;-16261.94;;;-139.71;85.29
3598;BME280;1813;52.016;8.714;2023-08-06T04:02:53;-16261.94;;;-139.71;85.15
3598;BME280;1813;52.016;8.714;2023-08-06T04:05:27;-16261.94;;;-139.71;84.95
3598;BME280;1813;52.016;8.714;2023-08-06T04:08:01;-16261.94;;;-139.71;84.91
3598;BME280;1813;52.016;8.714;2023-08-06T04:10:35;-16261.94;;;-139.71;84.73
3598;BME280;1813;52.016;8.714;2023-08-06T04:13:11;-16261.94;;;-139.71;84.54
3598;BME280;1813;52.016;8.714;2023-08-06T04:15:45;-16261.94;;;-139.71;84.86
3598;BME280;1813;52.016;8.714;2023-08-06T04:18:19;-16261.94;;;-139.71;84.55
3598;BME280;1813;52.016;8.714;2023-08-06T04:20:53;-16261.94;;;-139.71;85.11
3598;BME280;1813;52.016;8.714;2023-08-06T04:23:28;-16261.94;;;-139.71;85.69
3598;BME280;1813;52.016;8.714;2023-08-06T04:26:06;-16261.94;;;-139.71;86.45
3598;BME280;1813;52.016;8.714;2023-08-06T04:28:44;-16261.94;;;-139.71;86.95
3598;BME280;1813;52.016;8.714;2023-08-06T04:31:19;-16261.94;;;-139.71;87.07
3598;BME280;1813;52.016;8.714;2023-08-06T04:33:54;-16261.94;;;-139.71;87.54
3598;BME280;1813;52.016;8.714;2023-08-06T04:36:28;-16261.94;;;-139.71;87.67
3598;BME280;1813;52.016;8.714;2023-08-06T04:39:02;-16261.94;;;-139.71;87.85
3598;BME280;1813;52.016;8.714;2023-08-06T04:41:35;-16261.94;;;-139.71;88.11
3598;BME280;1813;52.016;8.714;2023-08-06T04:44:13;-16261.94;;;-139.71;88.26
3598;BME280;1813;52.016;8.714;2023-08-06T04:46:47;-16261.94;;;-139.71;87.98
3598;BME280;1813;52.016;8.714;2023-08-06T04:49:21;-16261.94;;;-139.71;87.96
3598;BME280;1813;52.016;8.714;2023-08-06T04:51:55;-16261.94;;;-139.71;87.98
3598;BME280;1813;52.016;8.714;2023-08-06T04:54:29;-16261.94;;;-139.71;88.12
3598;BME280;1813;52.016;8.714;2023-08-06T04:57:03;-16261.94;;;-139.71;88.74
3598;BME280;1813;52.016;8.714;2023-08-06T04:59:40;-16261.94;;;-139.71;89.03
3598;BME280;1813;52.016;8.714;2023-08-06T05:02:13;-16261.94;;;-139.71;89.03
3598;BME280;1813;52.016;8.714;2023-08-06T05:04:47;-16261.94;;;-139.71;89.05
3598;BME280;1813;52.016;8.714;2023-08-06T05:07:21;-16261.94;;;-139.71;88.90
3598;BME280;1813;52.016;8.714;2023-08-06T05:09:55;-16261.94;;;-139.71;88.95
3598;BME280;1813;52.016;8.714;2023-08-06T05:12:29;-16261.94;;;-139.71;88.74
3598;BME280;1813;52.016;8.714;2023-08-06T05:15:06;-16261.94;;;-139.71;88.74
3598;BME280;1813;52.016;8.714;2023-08-06T05:17:40;-16261.94;;;-139.71;88.73
3598;BME280;1813;52.016;8.714;2023-08-06T05:20:14;-16261.94;;;-139.71;88.86
3598;BME280;1813;52.016;8.714;2023-08-06T05:22:49;-16261.94;;;-139.71;89.39
3598;BME280;1813;52.016;8.714;2023-08-06T05:25:22;-16261.94;;;-139.71;89.66
3598;BME280;1813;52.016;8.714;2023-08-06T05:27:56;-16261.94;;;-139.71;89.78
3598;BME280;1813;52.016;8.714;2023-08-06T05:30:39;-16261.94;;;-139.71;89.58
3598;BME280;1813;52.016;8.714;2023-08-06T05:33:12;-16261.94;;;-139.71;89.53
3598;BME280;1813;52.016;8.714;2023-08-06T05:35:46;-16261.94;;;-139.71;89.38
3598;BME280;1813;52.016;8.714;2023-08-06T05:38:20;-16261.94;;;-139.71;88.95
3598;BME280;1813;52.016;8.714;2023-08-06T05:40:54;-16261.94;;;-139.71;88.80
3598;BME280;1813;52.016;8.714;2023-08-06T05:43:28;-16261.94;;;-139.71;88.78
3598;BME280;1813;52.016;8.714;2023-08-06T05:46:04;-16261.94;;;-139.71;88.45
3598;BME280;1813;52.016;8.714;2023-08-06T05:48:38;-16261.94;;;-139.71;88.74
3598;BME280;1813;52.016;8.714;2023-08-06T05:51:10;-16261.94;;;-139.71;88.85
3598;BME280;1813;52.016;8.714;2023-08-06T05:53:46;-16261.94;;;-139.71;88.98
3598;BME280;1813;52.016;8.714;2023-08-06T05:56:21;-16261.94;;;-139.71;89.28
3598;BME280;1813;52.016;8.714;2023-08-06T05:58:55;-16261.94;;;-139.71;89.48
3598;BME280;1813;52.016;8.714;2023-08-06T06:01:31;-16261.94;;;-139.71;89.31
3598;BME280;1813;52.016;8.714;2023-08-06T06:04:05;-16261.94;;;-139.71;89.53
3598;BME280;1813;52.016;8.714;2023-08-06T06:06:39;-16261.94;;;-139.71;89.84
3598;BME280;1813;52.016;8.714;2023-08-06T06:09:12;-16261.94;;;-139.71;89.98
3598;BME280;1813;52.016;8.714;2023-08-06T06:11:47;-16261.94;;;-139.71;90.33
3598;BME280;1813;52.016;8.714;2023-08-06T06:14:21;-16261.94;;;-139.71;90.21
3598;BME280;1813;52.016;8.714;2023-08-06T06:16:59;-16261.94;;;-139.71;90.31
3598;BME280;1813;52.016;8.714;2023-08-06T06:19:33;-16261.94;;;-139.71;90.26
3598;BME280;1813;52.016;8.714;2023-08-06T06:22:07;-16261.94;;;-139.71;89.89
3598;BME280;1813;52.016;8.714;2023-08-06T06:24:41;-16261.94;;;-139.71;89.87
3598;BME280;1813;52.016;8.714;2023-08-06T06:27:14;-16261.94;;;-139.71;90.06
3598;BME280;1813;52.016;8.714;2023-08-06T06:29:48;-16261.94;;;-139.71;89.35
3598;BME280;1813;52.016;8.714;2023-08-06T06:32:25;-16261.94;;;-139.71;88.67
3598;BME280;1813;52.016;8.714;2023-08-06T06:34:59;-16261.94;;;-139.71;88.33
3598;BME280;1813;52.016;8.714;2023-08-06T06:37:33;-16261.94;;;-139.71;88.26
3598;BME280;1813;52.016;8.714;2023-08-06T06:40:08;-16261.94;;;-139.71;88.90
3598;BME280;1813;52.016;8.714;2023-08-06T06:42:42;-16261.94;;;-139.71;89.96
3598;BME280;1813;52.016;8.714;2023-08-06T06:45:15;-16261.94;;;-139.71;90.13
3598;BME280;1813;52.016;8.714;2023-08-06T06:47:55;-16261.94;;;-139.71;89.41
3598;BME280;1813;52.016;8.714;2023-08-06T06:50:29;-16261.94;;;-139.71;88.95
3598;BME280;1813;52.016;8.714;2023-08-06T06:53:02;-16261.94;;;-139.71;88.05
3598;BME280;1813;52.016;8.714;2023-08-06T06:55:36;-16261.94;;;-139.71;86.93
3598;BME280;1813;52.016;8.714;2023-08-06T06:58:10;-16261.94;;;-139.71;87.13
3598;BME280;1813;52.016;8.714;2023-08-06T07:00:44;-16261.94;;;-139.71;88.37
3598;BME280;1813;52.016;8.714;2023-08-06T07:03:22;-16261.94;;;-139.71;88.48
3598;BME280;1813;52.016;8.714;2023-08-06T07:05:57;-16261.94;;;-139.71;88.32
3598;BME280;1813;52.016;8.714;2023-08-06T07:08:32;-16261.94;;;-139.71;87.04
3598;BME280;1813;52.016;8.714;2023-08-06T07:11:06;-16261.94;;;-139.71;85.29
3598;BME280;1813;52.016;8.714;2023-08-06T07:13:40;-16261.94;;;-139.71;84.40
3598;BME280;1813;52.016;8.714;2023-08-06T07:16:14;-16261.94;;;-139.71;84.69
3598;BME280;1813;52.016;8.714;2023-08-06T07:18:51;-16261.94;;;-139.71;84.66
3598;BME280;1813;52.016;8.714;2023-08-06T07:21:25;-16261.94;;;-139.71;83.51
3598;BME280;1813;52.016;8.714;2023-08-06T07:23:59;-16261.94;;;-139.71;84.04
3598;BME280;1813;52.016;8.714;2023-08-06T07:26:33;-16261.94;;;-139.71;82.42
3598;BME280;1813;52.016;8.714;2023-08-06T07:29:07;-16261.94;;;-139.71;81.97
3598;BME280;1813;52.016;8.714;2023-08-06T07:31:41;-16261.94;;;-139.71;82.29
3598;BME280;1813;52.016;8.714;2023-08-06T07:34:17;-16261.94;;;-139.71;81.44
3598;BME280;1813;52.016;8.714;2023-08-06T07:36:51;-16261.94;;;-139.71;81.86
3598;BME280;1813;52.016;8.714;2023-08-06T07:39:25;-16261.94;;;-139.71;80.90
3598;BME280;1813;52.016;8.714;2023-08-06T07:41:59;-16261.94;;;-139.71;80.28
3598;BME280;1813;52.016;8.714;2023-08-06T07:44:35;-16261.94;;;-139.71;78.81
3598;BME280;1813;52.016;8.714;2023-08-06T07:47:09;-16261.94;;;-139.71;77.83
3598;BME280;1813;52.016;8.714;2023-08-06T07:49:45;-16261.94;;;-139.71;76.16
3598;BME280;1813;52.016;8.714;2023-08-06T07:52:19;-16261.94;;;-139.71;75.54
3598;BME280;1813;52.016;8.714;2023-08-06T07:54:53;-16261.94;;;-139.71;74.88
3598;BME280;1813;52.016;8.714;2023-08-06T07:57:27;-16261.94;;;-139.71;72.26
3598;BME280;1813;52.016;8.714;2023-08-06T08:00:03;-16261.94;;;-139.71;72.45
3598;BME280;1813;52.016;8.714;2023-08-06T08:02:43;-16261.94;;;-139.71;71.65
3598;BME280;1813;52.016;8.714;2023-08-06T08:05:20;-16261.94;;;-139.71;70.28
3598;BME280;1813;52.016;8.714;2023-08-06T08:07:53;-16261.94;;;-139.71;71.09
3598;BME280;1813;52.016;8.714;2023-08-06T08:10:27;-16261.94;;;-139.71;71.54
3598;BME280;1813;52.016;8.714;2023-08-06T08:13:01;-16261.94;;;-139.71;72.51
3598;BME280;1813;52.016;8.714;2023-08-06T08:15:35;-16261.94;;;-139.71;74.05
3598;BME280;1813;52.016;8.714;2023-08-06T08:18:09;-16261.94;;;-139.71;74.67
3598;BME280;1813;52.016;8.714;2023-08-06T08:20:45;-16261.94;;;-139.71;74.59
3598;BME280;1813;52.016;8.714;2023-08-06T08:23:19;-16261.94;;;-139.71;73.50
3598;BME280;1813;52.016;8.714;2023-08-06T08:25:53;-16261.94;;;-139.71;73.19
3598;BME280;1813;52.016;8.714;2023-08-06T08:28:27;-16261.94;;;-139.71;72.31
3598;BME280;1813;52.016;8.714;2023-08-06T08:31:00;-16261.94;;;-139.71;71.96
3598;BME280;1813;52.016;8.714;2023-08-06T08:33:34;-16261.94;;;-139.71;73.21
3598;BME280;1813;52.016;8.714;2023-08-06T08:36:10;-16261.94;;;-139.71;73.87
3598;BME280;1813;52.016;8.714;2023-08-06T08:38:45;-16261.94;;;-139.71;73.29
3598;BME280;1813;52.016;8.714;2023-08-06T08:41:20;-16261.94;;;-139.71;71.70
3598;BME280;1813;52.016;8.714;2023-08-06T08:43:54;-16261.94;;;-139.71;70.86
3598;BME280;1813;52.016;8.714;2023-08-06T08:46:30;-16261.94;;;-139.71;71.48
3598;BME280;1813;52.016;8.714;2023-08-06T08:49:06;-16261.94;;;-139.71;72.16
3598;BME280;1813;52.016;8.714;2023-08-06T08:51:43;-16261.94;;;-139.71;72.59
3598;BME280;1813;52.016;8.714;2023-08-06T08:54:20;-16261.94;;;-139.71;71.89
3598;BME280;1813;52.016;8.714;2023-08-06T08:56:56;-16261.94;;;-139.71;72.29
3598;BME280;1813;52.016;8.714;2023-08-06T08:59:32;-16261.94;;;-139.71;71.52
3598;BME280;1813;52.016;8.714;2023-08-06T09:02:09;-16261.94;;;-139.71;70.47
3598;BME280;1813;52.016;8.714;2023-08-06T09:04:45;-16261.94;;;-139.71;69.81
3598;BME280;1813;52.016;8.714;2023-08-06T09:07:23;-16261.94;;;-139.71;69.18
3598;BME280;1813;52.016;8.714;2023-08-06T09:09:58;-16261.94;;;-139.71;70.89
3598;BME280;1813;52.016;8.714;2023-08-06T09:12:34;-16261.94;;;-139.71;66.38
3598;BME280;1813;52.016;8.714;2023-08-06T09:15:08;-16261.94;;;-139.71;68.21
3598;BME280;1813;52.016;8.714;2023-08-06T09:17:42;-16261.94;;;-139.71;67.46
3598;BME280;1813;52.016;8.714;2023-08-06T09:20:16;-16261.94;;;-139.71;65.91
3598;BME280;1813;52.016;8.714;2023-08-06T09:22:55;-16261.94;;;-139.71;62.89
3598;BME280;1813;52.016;8.714;2023-08-06T09:25:29;-16261.94;;;-139.71;63.06
3598;BME280;1813;52.016;8.714;2023-08-06T09:28:03;-16261.94;;;-139.71;61.79
3598;BME280;1813;52.016;8.714;2023-08-06T09:30:38;-16261.94;;;-139.71;59.47
3598;BME280;1813;52.016;8.714;2023-08-06T09:33:11;-16261.94;;;-139.71;60.61
3598;BME280;1813;52.016;8.714;2023-08-06T09:35:51;-16261.94;;;-139.71;57.36
3598;BME280;1813;52.016;8.714;2023-08-06T09:38:37;-16261.94;;;-139.71;57.84
3598;BME280;1813;52.016;8.714;2023-08-06T09:41:26;-16261.94;;;-139.71;55.27
3598;BME280;1813;52.016;8.714;2023-08-06T09:44:00;-16261.94;;;-139.71;56.61
3598;BME280;1813;52.016;8.714;2023-08-06T09:46:33;-16261.94;;;-139.71;55.75
3598;BME280;1813;52.016;8.714;2023-08-06T09:49:07;-16261.94;;;-139.71;52.84
3598;BME280;1813;52.016;8.714;2023-08-06T09:51:42;-16261.94;;;-139.71;51.90
3598;BME280;1813;52.016;8.714;2023-08-06T09:54:18;-16261.94;;;-139.71;52.34
3598;BME280;1813;52.016;8.714;2023-08-06T09:56:53;-16261.94;;;-139.71;51.37
3598;BME280;1813;52.016;8.714;2023-08-06T09:59:28;-16261.94;;;-139.71;52.82
3598;BME280;1813;52.016;8.714;2023-08-06T10:02:02;-16261.94;;;-139.71;53.28
3598;BME280;1813;52.016;8.714;2023-08-06T10:04:42;-16261.94;;;-139.71;50.95
3598;BME280;1813;52.016;8.714;2023-08-06T10:07:18;-16261.94;;;-139.71;50.13
3598;BME280;1813;52.016;8.714;2023-08-06T10:09:56;-16261.94;;;-139.71;49.83
3598;BME280;1813;52.016;8.714;2023-08-06T10:12:33;-16261.94;;;-139.71;48.76
3598;BME280;1813;52.016;8.714;2023-08-06T10:15:10;-16261.94;;;-139.71;47.30
3598;BME280;1813;52.016;8.714;2023-08-06T10:17:45;-16261.94;;;-139.71;47.43
3598;BME280;1813;52.016;8.714;2023-08-06T10:20:20;-16261.94;;;-139.71;45.96
3598;BME280;1813;52.016;8.714;2023-08-06T10:23:02;-16261.94;;;-139.71;47.53
3598;BME280;1813;52.016;8.714;2023-08-06T10:25:40;-16261.94;;;-139.71;48.76
3598;BME280;1813;52.016;8.714;2023-08-06T10:28:15;-16261.94;;;-139.71;51.64
3598;BME280;1813;52.016;8.714;2023-08-06T10:30:49;-16261.94;;;-139.71;50.85
3598;BME280;1813;52.016;8.714;2023-08-06T10:33:23;-16261.94;;;-139.71;48.81
3598;BME280;1813;52.016;8.714;2023-08-06T10:36:01;-16261.94;;;-139.71;47.70
3598;BME280;1813;52.016;8.714;2023-08-06T10:38:47;-16261.94;;;-139.71;46.62
3598;BME280;1813;52.016;8.714;2023-08-06T10:41:29;-16261.94;;;-139.71;45.98
3598;BME280;1813;52.016;8.714;2023-08-06T10:44:06;-16261.94;;;-139.71;44.90
3598;BME280;1813;52.016;8.714;2023-08-06T10:46:41;-16261.94;;;-139.71;45.17
3598;BME280;1813;52.016;8.714;2023-08-06T10:49:23;-16261.94;;;-139.71;45.62
3598;BME280;1813;52.016;8.714;2023-08-06T10:51:57;-16261.94;;;-139.71;46.01
3598;BME280;1813;52.016;8.714;2023-08-06T10:54:30;-16261.94;;;-139.71;46.60
3598;BME280;1813;52.016;8.714;2023-08-06T10:57:11;-16261.94;;;-139.71;47.12
3598;BME280;1813;52.016;8.714;2023-08-06T10:59:45;-16261.94;;;-139.71;44.73
3598;BME280;1813;52.016;8.714;2023-08-06T11:02:19;-16261.94;;;-139.71;44.78
3598;BME280;1813;52.016;8.714;2023-08-06T11:04:53;-16261.94;;;-139.71;46.51
3598;BME280;1813;52.016;8.714;2023-08-06T11:07:29;-16261.94;;;-139.71;46.17
3598;BME280;1813;52.016;8.714;2023-08-06T11:10:05;-16261.94;;;-139.71;46.30
3598;BME280;1813;52.016;8.714;2023-08-06T11:12:42;-16261.94;;;-139.71;45.24
3598;BME280;1813;52.016;8.714;2023-08-06T11:15:16;-16261.94;;;-139.71;46.53
3598;BME280;1813;52.016;8.714;2023-08-06T11:17:50;-16261.94;;;-139.71;46.22
3598;BME280;1813;52.016;8.714;2023-08-06T11:20:24;-16261.94;;;-139.71;45.50
3598;BME280;1813;52.016;8.714;2023-08-06T11:22:58;-16261.94;;;-139.71;47.20
3598;BME280;1813;52.016;8.714;2023-08-06T11:25:36;-16261.94;;;-139.71;47.40
3598;BME280;1813;52.016;8.714;2023-08-06T11:28:12;-16261.94;;;-139.71;46.81
3598;BME280;1813;52.016;8.714;2023-08-06T11:30:47;-16261.94;;;-139.71;46.86
3598;BME280;1813;52.016;8.714;2023-08-06T11:33:21;-16261.94;;;-139.71;47.07
3598;BME280;1813;52.016;8.714;2023-08-06T11:35:57;-16261.94;;;-139.71;45.87
3598;BME280;1813;52.016;8.714;2023-08-06T11:38:32;-16261.94;;;-139.71;45.01
3598;BME280;1813;52.016;8.714;2023-08-06T11:41:06;-16261.94;;;-139.71;43.06
3598;BME280;1813;52.016;8.714;2023-08-06T11:43:45;-16261.94;;;-139.71;43.12
3598;BME280;1813;52.016;8.714;2023-08-06T11:46:19;-16261.94;;;-139.71;43.90
3598;BME280;1813;52.016;8.714;2023-08-06T11:48:55;-16261.94;;;-139.71;42.77
3598;BME280;1813;52.016;8.714;2023-08-06T11:51:29;-16261.94;;;-139.71;41.23
3598;BME280;1813;52.016;8.714;2023-08-06T11:54:03;-16261.94;;;-139.71;40.58
3598;BME280;1813;52.016;8.714;2023-08-06T11:56:38;-16261.94;;;-139.71;39.65
3598;BME280;1813;52.016;8.714;2023-08-06T11:59:15;-16261.94;;;-139.71;39.34
3598;BME280;1813;52.016;8.714;2023-08-06T12:01:53;-16261.94;;;-139.71;39.06
3598;BME280;1813;52.016;8.714;2023-08-06T12:04:26;-16261.94;;;-139.71;39.17
3598;BME280;1813;52.016;8.714;2023-08-06T12:07:06;-16261.94;;;-139.71;39.01
3598;BME280;1813;52.016;8.714;2023-08-06T12:09:41;-16261.94;;;-139.71;39.15
3598;BME280;1813;52.016;8.714;2023-08-06T12:12:14;-16261.94;;;-139.71;40.42
3598;BME280;1813;52.016;8.714;2023-08-06T12:14:51;-16261.94;;;-139.71;40.85
3598;BME280;1813;52.016;8.714;2023-08-06T12:17:26;-16261.94;;;-139.71;41.37
3598;BME280;1813;52.016;8.714;2023-08-06T12:20:00;-16261.94;;;-139.71;41.98
3598;BME280;1813;52.016;8.714;2023-08-06T12:22:35;-16261.94;;;-139.71;41.28
3598;BME280;1813;52.016;8.714;2023-08-06T12:25:11;-16261.94;;;-139.71;42.40
3598;BME280;1813;52.016;8.714;2023-08-06T12:27:45;-16261.94;;;-139.71;43.51
3598;BME280;1813;52.016;8.714;2023-08-06T12:30:22;-16261.94;;;-139.71;43.89
3598;BME280;1813;52.016;8.714;2023-08-06T12:32:56;-16261.94;;;-139.71;42.85
3598;BME280;1813;52.016;8.714;2023-08-06T12:35:30;-16261.94;;;-139.71;42.51
3598;BME280;1813;52.016;8.714;2023-08-06T12:38:04;-16261.94;;;-139.71;43.01
3598;BME280;1813;52.016;8.714;2023-08-06T12:40:37;-16261.94;;;-139.71;43.38
3598;BME280;1813;52.016;8.714;2023-08-06T12:43:11;-16261.94;;;-139.71;43.87
3598;BME280;1813;52.016;8.714;2023-08-06T12:45:48;-16261.94;;;-139.71;43.58
3598;BME280;1813;52.016;8.714;2023-08-06T12:48:22;-16261.94;;;-139.71;43.44
3598;BME280;1813;52.016;8.714;2023-08-06T12:50:56;-16261.94;;;-139.71;44.06
3598;BME280;1813;52.016;8.714;2023-08-06T12:53:30;-16261.94;;;-139.71;43.78
3598;BME280;1813;52.016;8.714;2023-08-06T12:56:04;-16261.94;;;-139.71;44.33
3598;BME280;1813;52.016;8.714;2023-08-06T12:58:37;-16261.94;;;-139.71;43.92
3598;BME280;1813;52.016;8.714;2023-08-06T13:01:15;-16261.94;;;-139.71;45.94
3598;BME280;1813;52.016;8.714;2023-08-06T13:03:49;-16261.94;;;-139.71;45.74
3598;BME280;1813;52.016;8.714;2023-08-06T13:06:22;-16261.94;;;-139.71;45.38
3598;BME280;1813;52.016;8.714;2023-08-06T13:08:57;-16261.94;;;-139.71;45.95
3598;BME280;1813;52.016;8.714;2023-08-06T13:11:31;-16261.94;;;-139.71;45.45
3598;BME280;1813;52.016;8.714;2023-08-06T13:14:06;-16261.94;;;-139.71;45.45
3598;BME280;1813;52.016;8.714;2023-08-06T13:16:43;-16261.94;;;-139.71;46.28
3598;BME280;1813;52.016;8.714;2023-08-06T13:19:17;-16261.94;;;-139.71;46.67
3598;BME280;1813;52.016;8.714;2023-08-06T13:21:59;-16261.94;;;-139.71;46.86
3598;BME280;1813;52.016;8.714;2023-08-06T13:24:39;-16261.94;;;-139.71;47.89
3598;BME280;1813;52.016;8.714;2023-08-06T13:27:12;-16261.94;;;-139.71;48.26
3598;BME280;1813;52.016;8.714;2023-08-06T13:29:46;-16261.94;;;-139.71;49.31
3598;BME280;1813;52.016;8.714;2023-08-06T13:32:23;-16261.94;;;-139.71;49.33